Time;durP1;ratioP1;P1;durP2;ratioP2;P2;SDS_P1;SDS_P2;PMS_P1;PMS_P2;Temp;Humidity;BMP_temperature;BMP_pressure;BME280_temperature;BME280_humidity;BME280_pressure;Samples;Min_cycle;Max_cycle;Signal;HPM_P1;HPM_P2
2022/03/04 00:00:19;;;;;;;33.60;19.85;;;;;;;1.71;79.14;101023.73;1760907;81;28228;-62
2022/03/04 00:02:47;;;;;;;34.67;21.33;;;;;;;1.68;78.63;101026.55;1761109;80;25679;-62
2022/03/04 00:05:14;;;;;;;30.62;20.17;;;;;;;1.64;78.55;101024.12;1760893;81;27555;-62
2022/03/04 00:07:41;;;;;;;35.05;19.05;;;;;;;1.55;78.12;101020.97;1760984;81;25517;-61
2022/03/04 00:10:09;;;;;;;28.80;19.62;;;;;;;1.44;78.12;101023.70;1760722;81;25788;-62
2022/03/04 00:12:36;;;;;;;36.42;20.57;;;;;;;1.39;78.24;101027.44;1761180;81;26114;-62
2022/03/04 00:15:05;;;;;;;33.92;19.37;;;;;;;1.34;78.36;101017.53;1760947;81;25782;-62
2022/03/04 00:17:32;;;;;;;32.00;20.10;;;;;;;1.33;78.49;101018.91;1760824;80;28181;-62
2022/03/04 00:19:59;;;;;;;32.42;20.37;;;;;;;1.35;78.62;101015.25;1760869;81;25710;-61
2022/03/04 00:22:26;;;;;;;34.88;20.20;;;;;;;1.38;78.76;101015.12;1760835;81;25747;-62
2022/03/04 00:24:53;;;;;;;29.77;19.35;;;;;;;1.45;78.86;101012.17;1760949;80;26730;-62
2022/03/04 00:27:21;;;;;;;35.00;18.32;;;;;;;1.52;78.88;101004.34;1761065;81;25700;-62
2022/03/04 00:29:48;;;;;;;32.60;19.40;;;;;;;1.54;78.61;101006.44;1760952;81;27530;-62
2022/03/04 00:32:15;;;;;;;30.55;18.17;;;;;;;1.55;78.70;101002.86;1760854;81;25787;-62
2022/03/04 00:34:42;;;;;;;32.05;18.75;;;;;;;1.56;78.69;101004.13;1760750;81;25695;-62
2022/03/04 00:37:09;;;;;;;30.57;19.40;;;;;;;1.50;78.41;101004.40;1749594;81;26106;-62
2022/03/04 00:39:36;;;;;;;27.62;17.98;;;;;;;1.45;78.33;101001.12;1739336;82;25652;-62
2022/03/04 00:42:04;;;;;;;29.82;18.95;;;;;;;1.43;78.44;101004.30;1782015;79;28186;-62
2022/03/04 00:44:32;;;;;;;30.35;19.07;;;;;;;1.40;78.37;101002.66;1797792;79;25995;-62
2022/03/04 00:46:59;;;;;;;35.45;19.90;;;;;;;1.37;78.50;101004.59;1761358;80;25734;-62
2022/03/04 00:49:25;;;;;;;29.90;18.77;;;;;;;1.31;78.68;101004.86;1760996;80;26083;-62
2022/03/04 00:51:52;;;;;;;30.75;19.40;;;;;;;1.28;78.75;101005.02;1760927;80;26105;-62
2022/03/04 00:54:19;;;;;;;37.88;20.32;;;;;;;1.25;78.87;101006.87;1760987;81;27474;-62
2022/03/04 00:56:46;;;;;;;30.25;20.20;;;;;;;1.20;79.26;101017.28;1760988;80;25762;-62
2022/03/04 00:59:14;;;;;;;37.05;20.37;;;;;;;1.13;79.51;101004.77;1760915;81;25778;-63
2022/03/04 01:01:41;;;;;;;33.83;21.23;;;;;;;1.11;79.53;101009.30;1761011;81;26058;-61
2022/03/04 01:04:09;;;;;;;34.03;20.10;;;;;;;1.08;79.75;101006.78;1760983;81;25755;-61
2022/03/04 01:06:35;;;;;;;36.38;20.80;;;;;;;1.07;79.83;101007.26;1761263;81;27489;-62
2022/03/04 01:09:04;;;;;;;30.35;19.15;;;;;;;1.07;79.83;101007.70;1760949;80;27261;-62
2022/03/04 01:11:31;;;;;;;31.30;20.15;;;;;;;1.08;79.93;101008.95;1761249;81;25463;-62
2022/03/04 01:13:59;;;;;;;34.98;20.17;;;;;;;1.08;79.88;101004.98;1760910;81;26745;-62
2022/03/04 01:16:25;;;;;;;32.67;20.27;;;;;;;1.14;79.79;101005.64;1760806;80;25825;-61
2022/03/04 01:18:52;;;;;;;31.97;19.23;;;;;;;1.16;79.69;101001.98;1761080;80;28194;-62
2022/03/04 01:21:19;;;;;;;29.98;18.92;;;;;;;1.22;79.72;100999.05;1760990;81;26206;-62
2022/03/04 01:23:46;;;;;;;31.77;19.35;;;;;;;1.24;79.76;100991.05;1759774;79;25752;-62
2022/03/04 01:26:13;;;;;;;31.52;19.37;;;;;;;1.30;79.58;100991.23;1753132;81;26101;-62
2022/03/04 01:28:40;;;;;;;34.25;19.27;;;;;;;1.38;79.67;100985.95;1753400;81;25812;-62
2022/03/04 01:31:09;;;;;;;33.85;18.95;;;;;;;1.45;79.44;100990.96;1753115;81;27519;-62
2022/03/04 01:33:36;;;;;;;37.23;20.27;;;;;;;1.49;79.34;100986.77;1753107;81;25660;-62
2022/03/04 01:36:04;;;;;;;29.92;19.27;;;;;;;1.58;79.36;100988.59;1759424;78;25709;-62
2022/03/04 01:38:31;;;;;;;32.15;20.08;;;;;;;1.64;79.30;100990.48;1831010;78;26042;-61
2022/03/04 01:40:59;;;;;;;33.80;20.27;;;;;;;1.70;79.27;100988.02;1830920;78;25794;-62
2022/03/04 01:43:25;;;;;;;36.77;18.32;;;;;;;1.74;78.97;100994.03;1796767;78;28145;-62
2022/03/04 01:45:53;;;;;;;34.60;18.80;;;;;;;1.77;78.89;100995.22;1753303;80;25499;-60
2022/03/04 01:48:22;;;;;;;32.30;18.60;;;;;;;1.70;78.31;100994.16;1753181;81;25728;-62
2022/03/04 01:50:51;;;;;;;41.58;22.80;;;;;;;1.58;78.23;100988.59;1716774;83;26074;-61
2022/03/04 01:53:19;;;;;;;34.85;19.27;;;;;;;1.46;78.49;100990.91;1717178;83;25749;-62
2022/03/04 01:55:46;;;;;;;32.23;19.35;;;;;;;1.36;78.84;100991.78;1753485;81;27951;-62
2022/03/04 01:58:13;;;;;;;37.70;22.75;;;;;;;1.32;79.14;100992.00;1717072;82;26857;-61
2022/03/04 02:00:40;;;;;;;33.55;21.12;;;;;;;1.29;79.29;100990.84;1716826;82;25513;-61
2022/03/04 02:03:12;;;;;;;32.17;20.77;;;;;;;1.24;79.75;100993.22;1716490;83;26491;-61
2022/03/04 02:05:39;;;;;;;36.80;20.95;;;;;;;1.19;80.08;100992.59;1753203;81;25817;-60
2022/03/04 02:08:07;;;;;;;34.65;21.30;;;;;;;1.20;79.77;101002.26;1716998;82;27436;-61
2022/03/04 02:10:34;;;;;;;36.23;21.60;;;;;;;1.22;79.83;100989.77;1716779;82;25768;-60
2022/03/04 02:13:00;;;;;;;32.40;20.50;;;;;;;1.25;79.70;100994.09;1753387;81;25801;-61
2022/03/04 02:15:27;;;;;;;36.60;20.80;;;;;;;1.27;79.87;100994.86;1753194;81;26082;-61
2022/03/04 02:17:54;;;;;;;40.35;21.23;;;;;;;1.30;79.80;100993.89;1717261;83;25797;-60
2022/03/04 02:20:22;;;;;;;31.75;19.95;;;;;;;1.38;79.95;100998.36;1717266;83;27521;-60
2022/03/04 02:22:51;;;;;;;37.50;21.30;;;;;;;1.47;79.86;101002.36;1716934;83;25688;-61
2022/03/04 02:25:17;;;;;;;34.03;21.00;;;;;;;1.46;79.48;101003.29;1750089;80;25927;-61
2022/03/04 02:27:45;;;;;;;36.17;21.82;;;;;;;1.39;79.48;101002.73;1708697;83;26251;-61
2022/03/04 02:30:13;;;;;;;38.00;22.77;;;;;;;1.35;79.58;100999.82;1710272;83;25851;-62
2022/03/04 02:32:40;;;;;;;40.43;23.62;;;;;;;1.33;79.66;100999.02;1748256;82;27426;-61
2022/03/04 02:35:08;;;;;;;36.83;22.80;;;;;;;1.30;79.73;100992.08;1707862;83;26448;-62
2022/03/04 02:37:36;;;;;;;40.40;21.77;;;;;;;1.32;79.76;100990.67;1709027;82;25475;-62
2022/03/04 02:40:06;;;;;;;38.08;23.20;;;;;;;1.31;79.68;100992.48;1779230;79;26097;-62
2022/03/04 02:42:33;;;;;;;40.63;23.05;;;;;;;1.29;79.82;100990.36;1777009;80;25747;-63
2022/03/04 02:45:00;;;;;;;36.77;22.98;;;;;;;1.28;79.99;100984.66;1751581;80;27645;-62
2022/03/04 02:47:26;;;;;;;36.20;21.35;;;;;;;1.29;79.84;100987.70;1748591;82;25726;-62
2022/03/04 02:49:53;;;;;;;39.83;23.30;;;;;;;1.33;79.85;100984.45;1722826;82;25748;-62
2022/03/04 02:52:20;;;;;;;37.63;21.35;;;;;;;1.37;79.95;100980.73;1724585;82;26068;-62
2022/03/04 02:54:46;;;;;;;35.48;21.35;;;;;;;1.45;79.93;100986.53;1712817;83;25828;-62
2022/03/04 02:57:13;;;;;;;33.85;19.57;;;;;;;1.50;79.80;100984.99;1710226;83;27493;-63
2022/03/04 02:59:40;;;;;;;38.60;21.48;;;;;;;1.48;79.69;100982.39;1712364;83;25732;-62
2022/03/04 03:02:07;;;;;;;34.55;21.97;;;;;;;1.45;79.51;100983.88;1712935;83;25757;-62
2022/03/04 03:04:34;;;;;;;36.83;21.70;;;;;;;1.41;79.64;100987.59;1713364;81;26588;-63
2022/03/04 03:07:01;;;;;;;36.70;22.17;;;;;;;1.36;79.79;100981.66;1709367;83;25810;-62
2022/03/04 03:09:28;;;;;;;37.13;21.65;;;;;;;1.31;80.06;100985.85;1712354;81;27475;-62
2022/03/04 03:11:55;;;;;;;36.10;22.73;;;;;;;1.29;80.07;100980.23;1715405;83;25677;-62
2022/03/04 03:14:22;;;;;;;38.70;22.30;;;;;;;1.28;80.43;100983.81;1757301;80;25601;-62
2022/03/04 03:16:49;;;;;;;37.08;22.15;;;;;;;1.23;80.69;100987.52;1748494;82;26138;-62
2022/03/04 03:19:16;;;;;;;34.03;21.80;;;;;;;1.19;80.82;100983.31;1748556;82;26422;-62
2022/03/04 03:21:43;;;;;;;41.80;23.38;;;;;;;1.18;80.82;100981.59;1748773;82;27486;-62
2022/03/04 03:24:10;;;;;;;36.23;22.40;;;;;;;1.16;81.06;100989.22;1748649;80;25803;-62
2022/03/04 03:26:37;;;;;;;37.90;22.52;;;;;;;1.13;81.15;100985.38;1771760;81;25742;-61
2022/03/04 03:29:04;;;;;;;43.55;24.10;;;;;;;1.09;81.20;100982.85;1760952;81;26110;-61
2022/03/04 03:31:30;;;;;;;41.73;23.87;;;;;;;1.04;81.61;100978.24;1771716;81;25731;-61
2022/03/04 03:33:57;;;;;;;39.42;23.22;;;;;;;1.04;81.45;100978.24;1761114;81;27517;-61
2022/03/04 03:36:24;;;;;;;45.38;24.45;;;;;;;1.02;81.77;100984.55;1778402;79;25495;-61
2022/03/04 03:38:51;;;;;;;39.58;23.05;;;;;;;0.99;81.84;100985.52;1803248;79;26250;-61
2022/03/04 03:41:17;;;;;;;35.55;22.07;;;;;;;0.99;81.58;100987.33;1802948;79;26070;-61
2022/03/04 03:43:44;;;;;;;38.23;21.42;;;;;;;1.02;81.45;100981.89;1785068;79;25769;-61
2022/03/04 03:46:11;;;;;;;34.70;22.30;;;;;;;1.04;81.36;100998.56;1760471;79;27388;-61
2022/03/04 03:48:40;;;;;;;34.95;21.15;;;;;;;1.07;81.25;100994.45;1755556;81;25786;-62
2022/03/04 03:51:08;;;;;;;34.95;20.35;;;;;;;1.07;81.28;101005.06;1755460;81;26441;-61
2022/03/04 03:53:35;;;;;;;34.83;21.23;;;;;;;1.07;81.39;101001.96;1755508;80;26096;-63
2022/03/04 03:56:03;;;;;;;46.45;25.35;;;;;;;1.06;81.48;101005.98;1755369;81;25629;-61
2022/03/04 03:58:29;;;;;;;37.95;22.20;;;;;;;1.07;81.53;101009.91;1755552;80;28174;-61
2022/03/04 04:00:56;;;;;;;39.58;21.93;;;;;;;1.05;81.54;101007.78;1755883;80;25777;-62
2022/03/04 04:03:23;;;;;;;32.05;19.60;;;;;;;1.06;81.56;101002.00;1755485;81;25746;-62
2022/03/04 04:05:50;;;;;;;32.28;20.27;;;;;;;1.06;81.70;101004.66;1755878;80;26944;-61
2022/03/04 04:08:17;;;;;;;36.58;20.57;;;;;;;1.03;81.75;101008.79;1755520;81;25758;-61
2022/03/04 04:10:44;;;;;;;33.58;20.82;;;;;;;1.03;82.02;101006.14;1755633;81;27465;-61
2022/03/04 04:13:11;;;;;;;42.65;22.10;;;;;;;1.07;81.52;101012.56;1755426;81;25749;-62
2022/03/04 04:15:38;;;;;;;43.25;23.42;;;;;;;1.10;81.59;101011.55;1755539;80;25535;-61
2022/03/04 04:18:05;;;;;;;44.23;23.65;;;;;;;1.11;81.52;101011.95;1755544;80;26147;-62
2022/03/04 04:20:33;;;;;;;38.25;22.82;;;;;;;1.11;81.38;101016.37;1755598;81;25842;-62
2022/03/04 04:22:59;;;;;;;38.80;20.88;;;;;;;1.11;81.29;101015.92;1755598;80;27478;-60
2022/03/04 04:25:26;;;;;;;51.45;27.02;;;;;;;1.14;81.30;101017.57;1755808;80;25808;-61
2022/03/04 04:27:53;;;;;;;35.63;20.43;;;;;;;1.15;81.11;101022.80;1753031;81;25714;-61
2022/03/04 04:30:20;;;;;;;39.42;21.25;;;;;;;1.23;81.19;101019.33;1752676;81;26127;-62
2022/03/04 04:32:47;;;;;;;38.85;20.43;;;;;;;1.30;81.04;101021.72;1752985;81;25688;-61
2022/03/04 04:35:14;;;;;;;42.62;19.50;;;;;;;1.35;80.85;101019.22;1753591;81;26925;-61
2022/03/04 04:37:40;;;;;;;40.65;21.10;;;;;;;1.42;80.69;101018.96;1807110;78;25848;-61
2022/03/04 04:40:10;;;;;;;47.08;28.27;;;;;;;1.48;80.60;101023.48;1825183;78;25504;-62
2022/03/04 04:42:37;;;;;;;41.95;24.20;;;;;;;1.48;80.14;101026.14;1815184;78;26102;-61
2022/03/04 04:45:07;;;;;;;40.40;23.85;;;;;;;1.52;80.27;101026.41;1768835;81;25756;-61
2022/03/04 04:47:35;;;;;;;34.67;21.75;;;;;;;1.59;80.14;101032.29;1768700;81;28105;-61
2022/03/04 04:50:05;;;;;;;37.53;22.65;;;;;;;1.59;79.81;101036.27;1770465;79;25902;-61
2022/03/04 04:52:32;;;;;;;46.30;24.07;;;;;;;1.64;79.90;101033.40;1792933;79;25433;-61
2022/03/04 04:54:59;;;;;;;38.95;23.30;;;;;;;1.69;79.88;101040.66;1792474;80;28237;-61
2022/03/04 04:57:26;;;;;;;37.75;19.70;;;;;;;1.76;80.13;101041.23;1792668;80;25726;-61
2022/03/04 04:59:53;;;;;;;38.25;20.85;;;;;;;1.83;79.31;101046.64;1792884;80;27493;-61
2022/03/04 05:02:20;;;;;;;36.50;21.57;;;;;;;1.83;78.98;101047.97;1792403;80;25816;-61
2022/03/04 05:04:47;;;;;;;39.78;23.22;;;;;;;1.84;78.55;101045.23;1792704;80;25679;-61
2022/03/04 05:07:14;;;;;;;38.70;21.60;;;;;;;1.83;78.71;101051.95;1807918;78;26060;-61
2022/03/04 05:09:41;;;;;;;42.58;22.70;;;;;;;1.83;78.66;101054.15;1803077;78;27293;-62
2022/03/04 05:12:09;;;;;;;36.38;21.27;;;;;;;1.82;78.50;101060.83;1808439;78;27469;-61
2022/03/04 05:14:36;;;;;;;39.92;23.30;;;;;;;1.84;78.56;101061.15;1804928;78;25512;-60
2022/03/04 05:17:05;;;;;;;37.20;22.82;;;;;;;1.88;78.42;101060.08;1798146;78;25732;-60
2022/03/04 05:19:32;;;;;;;34.55;20.15;;;;;;;1.91;77.98;101057.74;1791096;78;26794;-60
2022/03/04 05:21:59;;;;;;;30.20;19.73;;;;;;;1.88;77.76;101063.22;1783140;79;25741;-61
2022/03/04 05:24:26;;;;;;;34.35;19.42;;;;;;;1.91;77.94;101062.20;1804095;78;27393;-61
2022/03/04 05:26:53;;;;;;;36.88;19.10;;;;;;;1.92;77.89;101063.92;1803788;78;25747;-61
2022/03/04 05:29:20;;;;;;;32.15;19.32;;;;;;;1.96;78.03;101070.80;1806317;78;26523;-61
2022/03/04 05:31:49;;;;;;;33.10;18.48;;;;;;;1.96;77.74;101071.67;1795387;78;26092;-62
2022/03/04 05:34:16;;;;;;;34.20;19.60;;;;;;;1.98;77.66;101068.94;1800406;78;25867;-61
2022/03/04 05:36:43;;;;;;;38.42;19.40;;;;;;;1.97;77.34;101068.53;1803354;77;28245;-60
2022/03/04 05:39:10;;;;;;;31.77;19.37;;;;;;;1.91;76.82;101075.47;1804255;78;25810;-61
2022/03/04 05:41:37;;;;;;;33.30;17.87;;;;;;;1.89;77.03;101083.48;1788065;78;25790;-62
2022/03/04 05:44:05;;;;;;;32.88;19.77;;;;;;;1.87;77.07;101077.41;1805370;78;26109;-61
2022/03/04 05:46:32;;;;;;;38.70;20.12;;;;;;;1.88;77.35;101080.46;1771608;79;25759;-62
2022/03/04 05:48:59;;;;;;;34.30;20.35;;;;;;;1.92;77.62;101083.34;1766372;81;27529;-61
2022/03/04 05:51:27;;;;;;;49.83;33.75;;;;;;;1.93;77.29;101085.55;1766680;81;25724;-62
2022/03/04 05:53:54;;;;;;;34.25;20.88;;;;;;;1.95;77.45;101089.84;1766484;81;25668;-62
2022/03/04 05:56:22;;;;;;;35.78;19.60;;;;;;;1.94;76.99;101089.45;1766660;81;26250;-61
2022/03/04 05:58:50;;;;;;;35.85;20.82;;;;;;;1.91;76.77;101092.72;1766423;81;25712;-62
2022/03/04 06:01:17;;;;;;;32.08;20.57;;;;;;;1.84;76.55;101096.11;1766645;80;27455;-62
2022/03/04 06:03:44;;;;;;;34.98;19.37;;;;;;;1.76;76.66;101091.16;1766428;81;25915;-62
2022/03/04 06:06:13;;;;;;;39.55;19.77;;;;;;;1.76;76.85;101096.94;1766630;81;25658;-61
2022/03/04 06:08:40;;;;;;;36.08;20.97;;;;;;;1.79;76.89;101097.66;1766739;81;26086;-62
2022/03/04 06:11:09;;;;;;;32.42;19.32;;;;;;;1.78;76.92;101097.26;1766572;81;25715;-61
2022/03/04 06:13:40;;;;;;;32.98;19.48;;;;;;;1.91;77.14;101094.89;1766606;81;28241;-61
2022/03/04 06:16:07;;;;;;;35.20;19.98;;;;;;;2.00;77.16;101097.11;1766966;81;25703;-61
2022/03/04 06:18:34;;;;;;;30.88;18.05;;;;;;;2.12;77.09;101090.83;1766526;81;25640;-62
2022/03/04 06:21:01;;;;;;;32.95;18.17;;;;;;;2.24;76.75;101099.50;1788135;78;27316;-62
2022/03/04 06:23:28;;;;;;;32.23;18.77;;;;;;;2.25;76.02;101097.73;1798207;79;25798;-62
2022/03/04 06:25:58;;;;;;;28.45;16.90;;;;;;;2.29;76.18;101100.61;1797988;79;27464;-62
2022/03/04 06:28:26;;;;;;;31.70;19.07;;;;;;;2.35;76.12;101105.64;1798145;79;25462;-61
2022/03/04 06:30:54;;;;;;;31.05;18.02;;;;;;;2.36;74.81;101102.05;1798267;79;25795;-62
2022/03/04 06:33:30;;;;;;;36.33;20.43;;;;;;;2.28;74.70;101106.41;1798216;79;26741;-62
2022/03/04 06:36:06;;;;;;;33.30;19.52;;;;;;;2.23;74.68;101115.07;1799148;78;25422;-62
2022/03/04 06:38:36;;;;;;;33.10;20.10;;;;;;;2.17;74.45;101114.89;1811741;78;27419;-60
2022/03/04 06:41:03;;;;;;;36.23;19.90;;;;;;;2.08;74.56;101120.64;1811481;79;25946;-61
2022/03/04 06:43:32;;;;;;;33.55;20.27;;;;;;;2.01;74.83;101116.56;1790834;79;25797;-61
2022/03/04 06:46:00;;;;;;;32.73;19.12;;;;;;;1.99;75.00;101119.75;1767560;79;26036;-61
2022/03/04 06:48:27;;;;;;;29.57;17.05;;;;;;;2.02;75.19;101114.27;1766602;81;25738;-62
2022/03/04 06:50:54;;;;;;;31.05;17.80;;;;;;;2.06;74.81;101121.17;1766608;81;27429;-62
2022/03/04 06:53:22;;;;;;;35.10;18.98;;;;;;;2.06;74.63;101111.03;1766567;80;25715;-61
2022/03/04 06:55:49;;;;;;;35.17;19.15;;;;;;;2.06;74.49;101126.95;1791852;78;25799;-61
2022/03/04 06:58:16;;;;;;;34.80;17.32;;;;;;;2.03;74.42;101121.30;1830695;77;26125;-62
2022/03/04 07:00:43;;;;;;;31.55;17.48;;;;;;;2.04;74.41;101129.66;1830808;78;25769;-61
2022/03/04 07:03:10;;;;;;;28.50;16.82;;;;;;;2.02;74.26;101138.16;1794980;78;27479;-61
2022/03/04 07:05:39;;;;;;;37.90;18.87;;;;;;;1.95;74.02;101135.40;1814036;78;26249;-61
2022/03/04 07:08:07;;;;;;;25.37;15.98;;;;;;;1.93;74.19;101135.48;1805766;78;26654;-62
2022/03/04 07:10:37;;;;;;;27.37;17.10;;;;;;;1.96;73.75;101139.78;1794192;78;26619;-61
2022/03/04 07:13:04;;;;;;;34.18;18.25;;;;;;;2.00;73.94;101139.56;1786781;78;25773;-62
2022/03/04 07:15:30;;;;;;;35.25;19.10;;;;;;;2.11;74.08;101135.07;1789994;79;27795;-62
2022/03/04 07:17:57;;;;;;;25.90;16.60;;;;;;;2.14;73.46;101133.61;1774574;79;25749;-61
2022/03/04 07:20:24;;;;;;;25.70;15.83;;;;;;;2.28;73.96;101131.63;1774411;79;25777;-62
2022/03/04 07:22:51;;;;;;;29.90;17.30;;;;;;;2.43;73.83;101130.02;1779164;80;26462;-61
2022/03/04 07:25:18;;;;;;;27.45;16.12;;;;;;;2.56;73.09;101134.27;1779401;80;26347;-62
2022/03/04 07:27:46;;;;;;;27.85;16.40;;;;;;;2.61;72.85;101134.04;1784831;79;27523;-61
2022/03/04 07:30:15;;;;;;;30.27;16.62;;;;;;;2.65;72.97;101136.92;1784714;79;27251;-61
2022/03/04 07:32:43;;;;;;;27.58;15.48;;;;;;;2.67;72.64;101129.73;1784924;79;25769;-62
2022/03/04 07:35:12;;;;;;;25.32;15.13;;;;;;;2.67;72.16;101140.36;1745069;81;26057;-62
2022/03/04 07:37:41;;;;;;;29.15;17.10;;;;;;;2.55;71.64;101132.55;1785072;80;25814;-62
2022/03/04 07:40:12;;;;;;;24.80;15.35;;;;;;;2.55;72.07;101133.02;1785383;80;28030;-61
2022/03/04 07:42:41;;;;;;;22.17;14.60;;;;;;;2.52;72.05;101127.84;1745010;81;25811;-62
2022/03/04 07:45:10;;;;;;;22.25;14.18;;;;;;;2.65;72.42;101124.52;1735606;82;25795;-62
2022/03/04 07:47:39;;;;;;;24.82;14.35;;;;;;;2.79;72.30;101135.78;1770671;80;26716;-62
2022/03/04 07:50:11;;;;;;;25.85;14.20;;;;;;;2.86;72.14;101140.77;1766819;80;25804;-62
2022/03/04 07:52:39;;;;;;;22.00;13.62;;;;;;;2.84;71.35;101136.00;1768734;80;27419;-61
2022/03/04 07:55:10;;;;;;;21.68;13.03;;;;;;;2.91;71.68;101131.64;1770564;80;25781;-62
2022/03/04 07:57:37;;;;;;;19.05;12.88;;;;;;;3.03;72.27;101133.29;1768335;80;25739;-62
2022/03/04 08:00:09;;;;;;;19.77;12.40;;;;;;;3.13;72.13;101139.38;1755443;80;26119;-62
2022/03/04 08:02:39;;;;;;;21.60;13.30;;;;;;;3.23;72.14;101133.58;1758452;80;25817;-62
2022/03/04 08:05:12;;;;;;;30.70;16.50;;;;;;;3.32;71.93;101139.75;1769261;80;28169;-61
2022/03/04 08:07:38;;;;;;;25.88;15.38;;;;;;;3.32;70.22;101141.08;1766796;80;25693;-61
2022/03/04 08:10:09;;;;;;;22.75;13.25;;;;;;;3.25;69.59;101141.02;1768846;80;25737;-61
2022/03/04 08:12:36;;;;;;;22.13;12.35;;;;;;;3.16;69.67;101138.83;1772407;79;27638;-60
2022/03/04 08:15:08;;;;;;;23.47;13.28;;;;;;;3.23;70.24;101144.22;1775666;79;25742;-61
2022/03/04 08:17:35;;;;;;;20.08;12.33;;;;;;;3.29;70.18;101135.91;1784971;80;27390;-61
2022/03/04 08:20:04;;;;;;;21.82;11.95;;;;;;;3.40;70.50;101128.23;1784229;80;25714;-60
2022/03/04 08:22:31;;;;;;;20.57;11.75;;;;;;;3.48;70.02;101132.28;1771287;80;25752;-62
2022/03/04 08:24:58;;;;;;;20.08;11.88;;;;;;;3.58;70.22;101131.73;1767553;80;26097;-61
2022/03/04 08:27:25;;;;;;;19.60;11.15;;;;;;;3.70;70.17;101138.19;1781339;78;25754;-61
2022/03/04 08:29:53;;;;;;;19.32;10.58;;;;;;;3.82;69.51;101140.66;1804110;78;27630;-60
2022/03/04 08:32:23;;;;;;;21.52;10.88;;;;;;;3.78;68.70;101129.77;1786918;78;25826;-60
2022/03/04 08:34:50;;;;;;;19.15;11.35;;;;;;;3.76;68.52;101133.02;1778322;80;25840;-61
2022/03/04 08:37:17;;;;;;;21.55;11.85;;;;;;;3.79;68.50;101135.48;1798410;78;26025;-61
2022/03/04 08:39:44;;;;;;;18.15;12.25;;;;;;;3.84;68.76;101140.11;1782904;78;26479;-60
2022/03/04 08:42:10;;;;;;;20.08;12.70;;;;;;;3.85;68.31;101141.83;1774454;78;27337;-62
2022/03/04 08:44:38;;;;;;;17.87;10.25;;;;;;;3.83;68.21;101142.83;1797083;78;25887;-61
2022/03/04 08:47:05;;;;;;;21.60;13.08;;;;;;;3.80;67.84;101147.01;1784353;80;26006;-61
2022/03/04 08:49:32;;;;;;;18.45;11.22;;;;;;;3.72;68.42;101154.06;1792075;78;26104;-61
2022/03/04 08:51:59;;;;;;;18.60;9.53;;;;;;;3.74;68.64;101150.86;1785378;80;25508;-61
2022/03/04 08:54:27;;;;;;;18.55;10.35;;;;;;;3.72;68.05;101150.92;1777257;80;28927;-62
2022/03/04 08:56:54;;;;;;;17.52;10.80;;;;;;;3.71;67.74;101154.55;1771292;80;25771;-62
2022/03/04 08:59:22;;;;;;;20.95;11.43;;;;;;;3.66;67.34;101146.42;1771649;81;25502;-61
2022/03/04 09:01:49;;;;;;;19.23;10.32;;;;;;;3.69;67.45;101149.77;1768015;78;26101;-61
2022/03/04 09:04:17;;;;;;;16.12;10.10;;;;;;;3.67;66.90;101152.13;1792007;80;25503;-61
2022/03/04 09:06:45;;;;;;;16.20;9.98;;;;;;;3.72;66.98;101150.07;1791819;78;28131;-61
2022/03/04 09:09:12;;;;;;;17.45;10.88;;;;;;;3.74;66.61;101148.20;1791771;80;25766;-60
2022/03/04 09:11:39;;;;;;;16.02;10.05;;;;;;;3.71;66.47;101147.89;1792340;80;25670;-62
2022/03/04 09:14:06;;;;;;;19.82;10.40;;;;;;;3.75;66.52;101156.57;1792188;80;26155;-62
2022/03/04 09:16:33;;;;;;;18.37;10.08;;;;;;;3.78;67.04;101160.86;1792290;80;25757;-61
2022/03/04 09:19:00;;;;;;;13.78;9.38;;;;;;;3.82;66.91;101153.08;1792331;79;27468;-62
2022/03/04 09:21:28;;;;;;;16.17;9.73;;;;;;;3.80;66.44;101161.64;1792340;80;25787;-61
2022/03/04 09:23:55;;;;;;;17.25;9.75;;;;;;;3.77;66.13;101157.32;1803236;79;25676;-61
2022/03/04 09:26:22;;;;;;;21.07;9.40;;;;;;;3.67;64.46;101160.11;1790961;79;28186;-62
2022/03/04 09:28:49;;;;;;;17.30;11.85;;;;;;;3.58;64.24;101149.48;1804644;78;25744;-61
2022/03/04 09:31:15;;;;;;;22.32;11.40;;;;;;;3.52;64.12;101157.31;1791650;78;27440;-62
2022/03/04 09:33:42;;;;;;;17.37;9.63;;;;;;;3.45;64.36;101155.44;1771453;80;25831;-62
2022/03/04 09:36:11;;;;;;;18.62;10.25;;;;;;;3.42;64.31;101146.31;1775496;78;25646;-62
2022/03/04 09:38:38;;;;;;;19.05;10.55;;;;;;;3.43;65.04;101157.34;1788888;79;26238;-61
2022/03/04 09:41:06;;;;;;;19.25;11.20;;;;;;;3.46;65.37;101151.00;1801376;78;25786;-62
2022/03/04 09:43:33;;;;;;;15.98;10.78;;;;;;;3.54;65.53;101153.27;1793750;78;27464;-62
2022/03/04 09:46:00;;;;;;;15.90;9.70;;;;;;;3.59;65.27;101146.73;1780759;79;25750;-61
2022/03/04 09:48:27;;;;;;;16.75;9.70;;;;;;;3.72;65.64;101150.07;1792175;80;25823;-61
2022/03/04 09:50:54;;;;;;;21.68;9.88;;;;;;;3.82;65.89;101144.64;1798618;78;26037;-62
2022/03/04 09:53:21;;;;;;;17.52;9.43;;;;;;;3.91;66.12;101148.14;1802678;78;25778;-60
2022/03/04 09:55:48;;;;;;;13.88;8.53;;;;;;;3.94;65.40;101147.11;1798274;77;27484;-61
2022/03/04 09:58:17;;;;;;;22.30;9.70;;;;;;;3.96;63.53;101159.86;1808036;78;25709;-61
2022/03/04 10:00:46;;;;;;;15.35;9.15;;;;;;;3.90;63.80;101146.41;1796986;78;25800;-62
2022/03/04 10:03:34;;;;;;;17.00;9.40;;;;;;;3.81;63.26;101142.92;1793908;78;26073;-61
2022/03/04 10:06:04;;;;;;;17.02;10.75;;;;;;;3.73;62.69;101141.15;1794978;78;25930;-61
2022/03/04 10:08:40;;;;;;;20.27;11.55;;;;;;;3.62;63.25;101144.40;1791877;80;27483;-61
2022/03/04 10:11:08;;;;;;;16.55;10.53;;;;;;;3.60;64.05;101144.94;1794472;79;26492;-61
2022/03/04 10:13:49;;;;;;;17.50;9.75;;;;;;;3.56;64.23;101141.59;1805124;77;25767;-59
2022/03/04 10:16:38;;;;;;;17.65;9.88;;;;;;;3.62;64.57;101142.19;1777035;79;26111;-62
2022/03/04 10:19:18;;;;;;;24.43;12.75;;;;;;;3.72;64.69;101136.77;1760872;81;26027;-60
2022/03/04 10:21:58;;;;;;;32.40;15.38;;;;;;;3.81;64.60;101132.77;1781924;78;27523;-62
2022/03/04 10:24:38;;;;;;;18.12;11.75;;;;;;;3.85;64.43;101136.50;1804868;78;25732;-62
2022/03/04 10:27:12;;;;;;;17.17;10.85;;;;;;;3.97;64.68;101135.42;1792103;78;26560;-62
2022/03/04 10:29:43;;;;;;;17.60;10.68;;;;;;;4.03;64.62;101135.95;1798885;78;26161;-61
2022/03/04 10:32:27;;;;;;;22.80;12.35;;;;;;;4.14;64.60;101134.50;1799348;78;25820;-60
2022/03/04 10:35:04;;;;;;;20.05;11.60;;;;;;;4.15;64.15;101138.88;1796187;79;32577;-60
2022/03/04 10:37:55;;;;;;;19.52;12.35;;;;;;;4.09;63.84;101138.75;1804101;78;25729;-61
2022/03/04 10:40:31;;;;;;;20.82;12.25;;;;;;;3.93;63.81;101127.23;1799478;79;25448;-62
2022/03/04 10:43:05;;;;;;;18.90;11.22;;;;;;;3.90;64.40;101128.23;1791036;79;25987;-61
2022/03/04 10:45:43;;;;;;;16.07;9.60;;;;;;;3.99;64.68;101133.54;1766389;81;25722;-61
2022/03/04 10:48:19;;;;;;;16.40;9.60;;;;;;;4.12;64.43;101124.40;1792443;78;27437;-61
2022/03/04 10:50:49;;;;;;;17.23;10.00;;;;;;;4.17;64.41;101129.86;1790697;78;25792;-61
2022/03/04 10:53:21;;;;;;;14.40;9.68;;;;;;;4.23;63.78;101136.16;1803332;78;25727;-61
2022/03/04 10:56:02;;;;;;;21.85;10.15;;;;;;;4.28;64.05;101123.07;1800131;78;26563;-62
2022/03/04 10:58:35;;;;;;;19.70;10.85;;;;;;;4.33;63.39;101129.86;1795285;78;25720;-62
2022/03/04 11:01:10;;;;;;;19.37;10.32;;;;;;;4.29;63.29;101126.13;1795544;78;27512;-62
2022/03/04 11:03:39;;;;;;;17.07;10.40;;;;;;;4.26;63.00;101124.47;1804415;78;25804;-61
2022/03/04 11:06:12;;;;;;;19.30;10.30;;;;;;;4.37;63.56;101116.73;1788739;78;25522;-61
2022/03/04 11:08:40;;;;;;;18.00;9.77;;;;;;;4.49;63.26;101119.66;1780571;80;26068;-62
2022/03/04 11:11:08;;;;;;;17.77;10.85;;;;;;;4.67;63.52;101117.71;1800955;78;25955;-61
2022/03/04 11:13:37;;;;;;;21.97;10.82;;;;;;;4.78;62.68;101115.77;1797774;78;27545;-62
2022/03/04 11:16:07;;;;;;;17.25;10.32;;;;;;;4.87;63.24;101111.23;1779935;80;25749;-62
2022/03/04 11:18:35;;;;;;;16.93;10.18;;;;;;;4.97;63.35;101119.08;1785569;78;25749;-62
2022/03/04 11:21:06;;;;;;;19.90;8.38;;;;;;;5.00;61.80;101116.69;1803243;77;26128;-62